createdAt,value
2023-01-21T00:01:21.334Z,6.49
2023-01-21T00:03:49.295Z,6.47
2023-01-21T00:06:18.049Z,6.37
2023-01-21T00:08:46.140Z,6.47
2023-01-21T00:11:16.159Z,6.39
2023-01-21T00:13:45.584Z,6.51
2023-01-21T00:16:14.338Z,6.57
2023-01-21T00:18:42.396Z,6.48
2023-01-21T00:21:11.025Z,6.53
2023-01-21T00:23:39.274Z,6.46
2023-01-21T00:26:11.016Z,6.40
2023-01-21T00:28:40.234Z,6.40
2023-01-21T00:31:09.451Z,6.54
2023-01-21T00:33:37.526Z,6.70
2023-01-21T00:36:11.586Z,6.55
2023-01-21T00:38:40.105Z,6.56
2023-01-21T00:41:11.598Z,6.55
2023-01-21T00:43:40.439Z,6.60
2023-01-21T00:46:09.710Z,6.71
2023-01-21T00:48:38.022Z,6.63
2023-01-21T00:51:07.434Z,6.38
2023-01-21T00:53:38.428Z,6.32
2023-01-21T00:56:09.022Z,6.44
2023-01-21T00:58:38.629Z,6.45
2023-01-21T01:01:09.102Z,6.40
2023-01-21T01:03:38.827Z,6.44
2023-01-21T01:06:10.741Z,6.44
2023-01-21T01:08:39.251Z,6.55
2023-01-21T01:11:07.714Z,6.61
2023-01-21T01:13:36.671Z,6.71
2023-01-21T01:16:06.188Z,6.65
2023-01-21T01:18:36.571Z,6.65
2023-01-21T01:21:06.307Z,6.62
2023-01-21T01:23:34.161Z,6.48
2023-01-21T01:26:05.512Z,6.59
2023-01-21T01:28:34.922Z,6.83
2023-01-21T01:31:08.896Z,6.70
2023-01-21T01:33:36.969Z,6.51
2023-01-21T01:36:09.555Z,6.75
2023-01-21T01:38:37.791Z,6.66
2023-01-21T01:41:06.229Z,6.59
2023-01-21T01:44:01.251Z,6.54
2023-01-21T01:46:32.565Z,6.61
2023-01-21T01:49:14.181Z,6.42
2023-01-21T01:51:56.891Z,6.38
2023-01-21T01:54:44.147Z,6.66
2023-01-21T01:57:16.968Z,6.60
2023-01-21T01:59:45.831Z,6.72
2023-01-21T02:02:18.301Z,6.75
2023-01-21T02:04:52.241Z,6.63
2023-01-21T02:07:24.212Z,6.64
2023-01-21T02:09:54.037Z,6.64
2023-01-21T02:12:22.828Z,6.71
2023-01-21T02:14:51.112Z,6.64
2023-01-21T02:17:58.107Z,6.75
2023-01-21T02:20:28.635Z,6.76
2023-01-21T02:23:04.379Z,6.58
2023-01-21T02:26:13.607Z,6.50
2023-01-21T02:29:17.752Z,6.66
2023-01-21T02:32:23.033Z,6.59
2023-01-21T02:35:01.723Z,6.56
2023-01-21T02:37:48.616Z,6.48
2023-01-21T02:40:41.047Z,6.68
2023-01-21T02:43:53.671Z,6.64
2023-01-21T02:46:37.761Z,6.60
2023-01-21T02:49:22.289Z,6.71
2023-01-21T02:51:50.970Z,6.53
2023-01-21T02:54:40.402Z,6.66
2023-01-21T02:57:13.842Z,6.50
2023-01-21T02:59:48.070Z,6.68
2023-01-21T03:02:55.323Z,6.51
2023-01-21T03:05:53.620Z,6.60
2023-01-21T03:08:28.117Z,6.46
2023-01-21T03:11:01.870Z,6.50
2023-01-21T03:13:55.124Z,6.44
2023-01-21T03:16:51.460Z,6.47
2023-01-21T03:19:24.502Z,6.72
2023-01-21T03:21:54.904Z,6.75
2023-01-21T03:24:24.365Z,6.52
2023-01-21T03:26:58.360Z,6.72
2023-01-21T03:29:30.195Z,6.60
2023-01-21T03:32:04.296Z,6.39
2023-01-21T03:34:38.894Z,6.42
2023-01-21T03:37:13.783Z,6.54
2023-01-21T03:40:26.565Z,6.59
2023-01-21T03:42:56.708Z,6.44
2023-01-21T03:45:41.464Z,6.59
2023-01-21T03:48:21.322Z,6.74
2023-01-21T03:51:00.067Z,6.68
2023-01-21T03:53:29.486Z,6.48
2023-01-21T03:55:59.543Z,6.52
2023-01-21T03:58:28.518Z,6.53
2023-01-21T04:00:58.150Z,6.44
2023-01-21T04:03:26.384Z,6.65
2023-01-21T04:05:55.023Z,6.57
2023-01-21T04:08:22.897Z,6.66
2023-01-21T04:10:51.050Z,6.61
2023-01-21T04:13:19.391Z,6.49
2023-01-21T04:15:47.613Z,6.65
2023-01-21T04:18:16.136Z,6.49
2023-01-21T04:20:47.067Z,6.59
2023-01-21T04:23:15.039Z,6.61
2023-01-21T04:25:43.303Z,6.82
2023-01-21T04:28:11.305Z,6.78
2023-01-21T04:30:39.428Z,6.56
2023-01-21T04:33:07.398Z,6.66
2023-01-21T04:35:36.727Z,6.82
2023-01-21T04:38:06.634Z,6.89
2023-01-21T04:40:35.121Z,6.90
2023-01-21T04:43:02.928Z,6.91
2023-01-21T04:45:31.558Z,6.72
2023-01-21T04:48:00.504Z,6.80
2023-01-21T04:50:28.786Z,6.88
2023-01-21T04:52:56.604Z,6.77
2023-01-21T04:55:27.186Z,6.75
2023-01-21T04:57:55.233Z,6.59
2023-01-21T05:00:23.545Z,6.52
2023-01-21T05:02:51.451Z,6.56
2023-01-21T05:05:20.157Z,6.61
2023-01-21T05:07:48.174Z,6.51
2023-01-21T05:10:18.451Z,6.67
2023-01-21T05:12:48.780Z,6.85
2023-01-21T05:15:17.997Z,6.75
2023-01-21T05:17:47.186Z,6.64
2023-01-21T05:20:16.225Z,6.57
2023-01-21T05:22:48.146Z,6.70
2023-01-21T05:25:17.111Z,6.86
2023-01-21T05:27:45.956Z,6.50
2023-01-21T05:30:14.661Z,6.61
2023-01-21T05:32:42.575Z,6.34
2023-01-21T05:35:12.722Z,6.49
2023-01-21T05:37:40.675Z,6.84
2023-01-21T05:40:09.696Z,6.85
2023-01-21T05:42:37.519Z,6.78
2023-01-21T05:45:06.368Z,6.56
2023-01-21T05:47:34.386Z,6.59
2023-01-21T05:50:02.651Z,6.76
2023-01-21T05:52:30.826Z,6.83
2023-01-21T05:55:02.327Z,6.90
2023-01-21T05:57:32.948Z,6.91
2023-01-21T06:00:01.417Z,6.95
2023-01-21T06:02:29.838Z,6.84
2023-01-21T06:04:58.206Z,6.74
2023-01-21T06:07:26.127Z,6.90
2023-01-21T06:09:54.423Z,6.93
2023-01-21T06:12:24.666Z,6.92
2023-01-21T06:14:53.197Z,6.61
2023-01-21T06:17:21.572Z,6.81
2023-01-21T06:19:49.961Z,6.71
2023-01-21T06:22:18.845Z,6.55
2023-01-21T06:24:47.392Z,6.80
2023-01-21T06:27:15.248Z,6.62
2023-01-21T06:29:44.272Z,6.67
2023-01-21T06:32:12.108Z,6.72
2023-01-21T06:34:41.487Z,6.46
2023-01-21T06:37:09.381Z,6.32
2023-01-21T06:39:39.166Z,6.50
2023-01-21T06:42:07.033Z,6.51
2023-01-21T06:44:35.503Z,6.47
2023-01-21T06:47:03.689Z,6.70
2023-01-21T06:49:32.975Z,6.81
2023-01-21T06:52:00.787Z,6.76
2023-01-21T06:54:31.661Z,6.82
2023-01-21T06:56:59.676Z,6.50
2023-01-21T06:59:28.146Z,6.70
2023-01-21T07:01:59.332Z,6.64
2023-01-21T07:04:28.749Z,6.45
2023-01-21T07:06:56.614Z,6.58
2023-01-21T07:09:24.953Z,6.63
2023-01-21T07:11:52.831Z,6.69
2023-01-21T07:14:21.267Z,6.57
2023-01-21T07:16:49.046Z,6.56
2023-01-21T07:19:18.018Z,6.18
2023-01-21T07:21:45.820Z,6.22
2023-01-21T07:24:14.274Z,5.89
2023-01-21T07:26:43.571Z,6.06
2023-01-21T07:29:11.858Z,6.02
2023-01-21T07:31:39.817Z,6.35
2023-01-21T07:34:09.502Z,6.38
2023-01-21T07:36:37.293Z,6.50
2023-01-21T07:39:05.682Z,6.69
2023-01-21T07:41:33.710Z,6.19
2023-01-21T07:44:02.154Z,6.37
2023-01-21T07:46:29.980Z,6.37
2023-01-21T07:48:58.353Z,6.41
2023-01-21T07:51:26.941Z,6.42
2023-01-21T07:53:58.898Z,6.59
2023-01-21T07:56:27.523Z,6.63
2023-01-21T07:58:56.033Z,6.31
2023-01-21T08:01:27.336Z,6.52
2023-01-21T08:03:55.717Z,6.32
2023-01-21T08:06:23.531Z,6.48
2023-01-21T08:08:52.010Z,6.60
2023-01-21T08:11:20.090Z,6.55
2023-01-21T08:13:50.393Z,6.49
2023-01-21T08:16:18.468Z,6.64
2023-01-21T08:18:46.978Z,6.57
2023-01-21T08:21:16.112Z,6.51
2023-01-21T08:23:44.353Z,6.51
2023-01-21T08:26:12.323Z,6.50
2023-01-21T08:28:41.007Z,6.21
2023-01-21T08:31:13.034Z,6.14
2023-01-21T08:33:41.678Z,6.01
2023-01-21T08:36:12.371Z,6.18
2023-01-21T08:38:41.796Z,6.31
2023-01-21T08:41:10.895Z,6.28
2023-01-21T08:43:40.824Z,6.29
2023-01-21T08:46:09.376Z,6.49
2023-01-21T08:48:40.874Z,6.35
2023-01-21T08:51:09.802Z,6.38
2023-01-21T08:53:37.977Z,6.50
2023-01-21T08:56:06.309Z,6.64
2023-01-21T08:58:34.591Z,6.56
2023-01-21T09:01:11.533Z,6.50
2023-01-21T09:03:40.134Z,6.53
2023-01-21T09:06:08.680Z,6.39
2023-01-21T09:08:37.046Z,6.54
2023-01-21T09:11:07.296Z,6.73
2023-01-21T09:13:38.987Z,6.67
2023-01-21T09:16:15.669Z,6.77
2023-01-21T09:18:44.571Z,6.25
2023-01-21T09:21:13.371Z,6.54
2023-01-21T09:23:42.316Z,6.61
2023-01-21T09:26:15.830Z,6.75
2023-01-21T09:28:48.109Z,6.83
2023-01-21T09:31:18.819Z,6.80
2023-01-21T09:33:50.584Z,6.76
2023-01-21T09:36:24.742Z,6.81
2023-01-21T09:38:53.354Z,6.91
2023-01-21T09:41:26.194Z,6.84
2023-01-21T09:44:25.658Z,6.90
2023-01-21T09:47:12.035Z,7.06
2023-01-21T09:49:45.885Z,6.78
2023-01-21T09:52:22.923Z,6.95
2023-01-21T09:54:56.226Z,7.06
2023-01-21T09:57:39.321Z,6.81
2023-01-21T10:00:32.261Z,7.12
2023-01-21T10:03:08.372Z,7.27
2023-01-21T10:05:51.642Z,7.16
2023-01-21T10:08:54.268Z,7.16
2023-01-21T10:11:40.798Z,7.23
2023-01-21T10:14:34.834Z,7.08
2023-01-21T10:17:14.885Z,7.26
2023-01-21T10:19:59.351Z,7.34
2023-01-21T10:22:29.269Z,7.55
2023-01-21T10:25:09.761Z,7.32
2023-01-21T10:27:42.274Z,7.36
2023-01-21T10:30:21.508Z,7.40
2023-01-21T10:32:53.840Z,7.45
2023-01-21T10:35:49.776Z,7.55
2023-01-21T10:38:28.178Z,7.28
2023-01-21T10:41:12.849Z,7.26
2023-01-21T10:43:59.062Z,7.34
2023-01-21T10:46:55.899Z,7.40
2023-01-21T10:50:01.720Z,7.47
2023-01-21T10:52:47.986Z,7.66
2023-01-21T10:56:01.043Z,7.55
2023-01-21T10:58:53.102Z,7.60
2023-01-21T11:01:37.769Z,7.61
2023-01-21T11:04:15.127Z,7.66
2023-01-21T11:06:46.242Z,7.57
2023-01-21T11:09:15.584Z,7.62
2023-01-21T11:11:43.866Z,7.35
2023-01-21T11:14:13.174Z,7.60
2023-01-21T11:16:50.767Z,7.58
2023-01-21T11:19:23.459Z,7.50
2023-01-21T11:22:06.958Z,7.56
2023-01-21T11:24:49.973Z,7.72
2023-01-21T11:27:21.915Z,7.33
2023-01-21T11:29:52.442Z,7.51
2023-01-21T11:32:24.555Z,7.63
2023-01-21T11:35:02.417Z,7.34
2023-01-21T11:37:33.292Z,7.45
2023-01-21T11:40:06.777Z,7.52
2023-01-21T11:42:53.938Z,7.53
2023-01-21T11:45:37.141Z,7.28
2023-01-21T11:48:22.541Z,7.57
2023-01-21T11:51:06.926Z,7.47
2023-01-21T11:53:35.431Z,7.47
2023-01-21T11:56:05.090Z,7.38
2023-01-21T11:58:36.972Z,7.42
2023-01-21T12:01:26.072Z,7.00
2023-01-21T12:04:00.284Z,7.33
2023-01-21T12:06:30.994Z,7.35
2023-01-21T12:09:08.316Z,7.37
2023-01-21T12:11:36.677Z,7.20
2023-01-21T12:14:26.747Z,7.19
2023-01-21T12:17:32.225Z,7.26
2023-01-21T12:20:12.767Z,7.49
2023-01-21T12:22:46.739Z,7.37
2023-01-21T12:25:38.591Z,7.06
2023-01-21T12:28:19.179Z,7.11
2023-01-21T12:31:12.073Z,7.01
2023-01-21T12:33:59.505Z,6.68
2023-01-21T12:36:39.528Z,6.88
2023-01-21T12:39:23.007Z,7.00
2023-01-21T12:42:01.027Z,6.95
2023-01-21T12:44:43.454Z,6.93
2023-01-21T12:47:21.353Z,7.00
2023-01-21T12:50:30.783Z,7.23
2023-01-21T12:53:25.039Z,7.25
2023-01-21T12:56:21.231Z,7.40
2023-01-21T12:59:02.875Z,7.40
2023-01-21T13:01:49.699Z,7.27
2023-01-21T13:04:51.944Z,7.29
2023-01-21T13:07:26.058Z,7.41
2023-01-21T13:10:20.595Z,7.35
2023-01-21T13:12:56.210Z,7.34
2023-01-21T13:15:32.386Z,7.40
2023-01-21T13:18:11.506Z,7.40
2023-01-21T13:20:44.867Z,7.05
2023-01-21T13:23:21.409Z,7.23
2023-01-21T13:26:03.258Z,7.28
2023-01-21T13:28:47.291Z,7.47
2023-01-21T13:31:20.404Z,7.55
2023-01-21T13:33:54.717Z,7.58
2023-01-21T13:36:29.193Z,7.29
2023-01-21T13:38:59.941Z,7.44
2023-01-21T13:42:10.077Z,7.33
2023-01-21T13:44:56.789Z,7.46
2023-01-21T13:47:40.488Z,7.43
2023-01-21T13:50:56.147Z,7.12
2023-01-21T13:53:36.581Z,7.30
2023-01-21T13:56:23.243Z,7.38
2023-01-21T13:59:00.693Z,7.40
2023-01-21T14:01:40.851Z,7.54
2023-01-21T14:04:19.826Z,7.40
2023-01-21T14:07:00.743Z,7.48
2023-01-21T14:09:50.084Z,7.57
2023-01-21T14:12:47.554Z,7.41
2023-01-21T14:15:34.020Z,7.36
2023-01-21T14:18:27.846Z,7.38
2023-01-21T14:21:12.518Z,7.44
2023-01-21T14:24:07.824Z,7.32
2023-01-21T14:27:14.947Z,7.14
2023-01-21T14:29:54.571Z,7.23
2023-01-21T14:32:30.030Z,7.43
2023-01-21T14:35:15.371Z,7.45
2023-01-21T14:38:04.552Z,7.58
2023-01-21T14:40:44.547Z,7.52
2023-01-21T14:43:31.302Z,7.59
2023-01-21T14:46:01.548Z,7.55
2023-01-21T14:48:39.019Z,7.29
2023-01-21T14:51:09.511Z,7.16
2023-01-21T14:53:51.036Z,7.26
2023-01-21T14:56:34.942Z,7.25
2023-01-21T14:59:25.665Z,7.17
2023-01-21T15:02:02.014Z,7.28
2023-01-21T15:04:40.653Z,7.36
2023-01-21T15:07:16.774Z,7.38
2023-01-21T15:09:53.136Z,7.42
2023-01-21T15:12:28.837Z,7.44
2023-01-21T15:15:03.197Z,7.41
2023-01-21T15:17:53.593Z,7.17
2023-01-21T15:20:51.965Z,7.26
2023-01-21T15:23:31.948Z,7.47
2023-01-21T15:26:15.439Z,7.37
2023-01-21T15:28:56.008Z,7.49
2023-01-21T15:31:24.919Z,7.52
2023-01-21T15:33:57.495Z,7.35
2023-01-21T15:36:32.388Z,7.26
2023-01-21T15:39:12.341Z,7.33
2023-01-21T15:42:13.855Z,7.37
2023-01-21T15:44:49.814Z,7.44
2023-01-21T15:47:29.560Z,7.26
2023-01-21T15:50:19.845Z,7.22
2023-01-21T15:53:21.094Z,7.09
2023-01-21T15:56:09.327Z,7.01
2023-01-21T15:58:49.681Z,7.02
2023-01-21T16:01:34.111Z,6.73
2023-01-21T16:04:20.474Z,6.93
2023-01-21T16:07:11.755Z,6.75
2023-01-21T16:10:04.701Z,6.89
2023-01-21T16:12:54.507Z,7.03
2023-01-21T16:16:05.555Z,6.99
2023-01-21T16:19:07.804Z,7.15
2023-01-21T16:21:40.516Z,6.89
2023-01-21T16:24:22.878Z,6.99
2023-01-21T16:26:52.638Z,7.01
2023-01-21T16:29:20.757Z,6.92
2023-01-21T16:32:00.109Z,6.94
2023-01-21T16:34:42.827Z,6.93
2023-01-21T16:37:19.983Z,7.03
2023-01-21T16:39:48.078Z,7.06
2023-01-21T16:42:31.022Z,7.19
2023-01-21T16:45:00.676Z,7.11
2023-01-21T16:47:36.923Z,7.16
2023-01-21T16:50:05.919Z,7.26
2023-01-21T16:52:35.447Z,7.20
2023-01-21T16:55:03.472Z,6.90
2023-01-21T16:57:32.530Z,7.29
2023-01-21T17:00:02.943Z,7.31
2023-01-21T17:02:34.242Z,7.23
2023-01-21T17:05:08.512Z,7.19
2023-01-21T17:07:45.826Z,7.11
2023-01-21T17:10:24.287Z,6.89
2023-01-21T17:12:56.657Z,7.20
2023-01-21T17:15:47.954Z,7.05
2023-01-21T17:18:22.076Z,7.27
2023-01-21T17:21:14.184Z,7.34
2023-01-21T17:23:55.462Z,6.94
2023-01-21T17:26:46.167Z,7.11
2023-01-21T17:29:27.224Z,6.92
2023-01-21T17:32:07.583Z,6.97
2023-01-21T17:34:38.236Z,6.89
2023-01-21T17:37:44.207Z,7.09
2023-01-21T17:40:37.531Z,7.11
2023-01-21T17:43:25.922Z,6.83
2023-01-21T17:45:57.696Z,7.05
2023-01-21T17:48:39.793Z,7.12
2023-01-21T17:51:19.344Z,7.20
2023-01-21T17:54:01.148Z,7.04
2023-01-21T17:56:42.201Z,7.20
2023-01-21T17:59:45.939Z,7.17
2023-01-21T18:02:22.375Z,7.02
2023-01-21T18:04:52.230Z,6.94
2023-01-21T18:07:27.176Z,6.97
2023-01-21T18:09:59.114Z,7.16
2023-01-21T18:12:27.507Z,7.15
2023-01-21T18:14:56.788Z,6.98
2023-01-21T18:17:26.223Z,7.18
2023-01-21T18:19:54.076Z,7.23
2023-01-21T18:22:32.820Z,7.27
2023-01-21T18:25:03.270Z,7.29
2023-01-21T18:27:31.805Z,7.30
2023-01-21T18:29:59.728Z,7.43
2023-01-21T18:32:28.339Z,7.45
2023-01-21T18:34:56.730Z,7.35
2023-01-21T18:37:26.837Z,7.42
2023-01-21T18:39:55.027Z,7.46
2023-01-21T18:42:23.876Z,7.48
2023-01-21T18:44:53.639Z,7.54
2023-01-21T18:47:23.315Z,7.35
2023-01-21T18:49:52.239Z,7.38
2023-01-21T18:52:21.617Z,7.40
2023-01-21T18:54:52.500Z,7.31
2023-01-21T18:57:23.770Z,7.31
2023-01-21T18:59:53.130Z,7.37
2023-01-21T19:02:23.554Z,7.30
2023-01-21T19:04:54.382Z,7.31
2023-01-21T19:07:24.184Z,7.36
2023-01-21T19:09:52.226Z,7.53
2023-01-21T19:12:25.208Z,7.60
2023-01-21T19:14:54.100Z,7.54
2023-01-21T19:17:31.329Z,7.40
2023-01-21T19:19:59.513Z,7.47
2023-01-21T19:22:27.931Z,7.52
2023-01-21T19:24:56.132Z,7.45
2023-01-21T19:27:43.589Z,7.50
2023-01-21T19:30:26.760Z,7.51
2023-01-21T19:32:57.256Z,7.54
2023-01-21T19:35:33.414Z,7.53
2023-01-21T19:38:02.506Z,7.61
2023-01-21T19:40:30.770Z,7.67
2023-01-21T19:42:59.071Z,7.57
2023-01-21T19:45:29.446Z,7.58
2023-01-21T19:47:58.166Z,7.50
2023-01-21T19:50:27.772Z,7.64
2023-01-21T19:52:56.261Z,7.66
2023-01-21T19:55:26.017Z,7.55
2023-01-21T19:58:01.507Z,7.36
2023-01-21T20:00:33.586Z,7.48
2023-01-21T20:03:02.370Z,7.44
2023-01-21T20:05:35.453Z,7.37
2023-01-21T20:08:05.542Z,7.49
2023-01-21T20:10:33.606Z,7.50
2023-01-21T20:13:01.791Z,7.55
2023-01-21T20:15:32.686Z,7.51
2023-01-21T20:18:04.403Z,7.44
2023-01-21T20:20:33.958Z,7.48
2023-01-21T20:23:02.355Z,7.45
2023-01-21T20:25:37.079Z,7.49
2023-01-21T20:28:23.835Z,7.36
2023-01-21T20:30:53.355Z,7.37
2023-01-21T20:33:23.776Z,7.45
2023-01-21T20:35:55.406Z,7.39
2023-01-21T20:38:30.403Z,7.42
2023-01-21T20:40:59.610Z,7.49
2023-01-21T20:43:32.960Z,7.46
2023-01-21T20:46:04.684Z,7.37
2023-01-21T20:48:36.952Z,7.44
2023-01-21T20:51:05.313Z,7.44
2023-01-21T20:53:33.798Z,7.39
2023-01-21T20:56:14.083Z,7.38
2023-01-21T20:58:45.171Z,7.48
2023-01-21T21:01:15.184Z,7.46
2023-01-21T21:03:43.930Z,7.36
2023-01-21T21:06:17.126Z,7.45
2023-01-21T21:08:47.526Z,7.37
2023-01-21T21:11:17.394Z,7.44
2023-01-21T21:13:48.587Z,7.39
2023-01-21T21:16:21.634Z,7.54
2023-01-21T21:18:50.967Z,7.47
2023-01-21T21:21:23.655Z,7.45
2023-01-21T21:23:53.276Z,7.45
2023-01-21T21:26:24.431Z,7.41
2023-01-21T21:29:00.491Z,7.45
2023-01-21T21:31:32.191Z,7.50
2023-01-21T21:34:00.878Z,7.36
2023-01-21T21:36:28.715Z,7.42
2023-01-21T21:38:57.230Z,7.38
2023-01-21T21:41:44.832Z,7.50
2023-01-21T21:44:13.470Z,7.35
2023-01-21T21:47:01.329Z,7.39
2023-01-21T21:49:29.879Z,7.37
2023-01-21T21:51:57.837Z,7.35
2023-01-21T21:54:26.239Z,7.40
2023-01-21T21:56:54.717Z,7.16
2023-01-21T21:59:23.191Z,7.19
2023-01-21T22:01:51.678Z,7.17
2023-01-21T22:04:23.253Z,7.15
2023-01-21T22:06:53.200Z,7.15
2023-01-21T22:09:22.533Z,7.28
2023-01-21T22:11:50.555Z,6.99
2023-01-21T22:14:18.903Z,7.19
2023-01-21T22:16:49.254Z,7.41
2023-01-21T22:19:18.466Z,7.23
2023-01-21T22:21:46.503Z,7.23
2023-01-21T22:24:15.951Z,7.35
2023-01-21T22:26:44.798Z,7.40
2023-01-21T22:29:13.180Z,7.37
2023-01-21T22:31:41.172Z,7.19
2023-01-21T22:34:09.699Z,7.29
2023-01-21T22:36:37.592Z,7.36
2023-01-21T22:39:06.910Z,7.10
2023-01-21T22:41:35.058Z,7.23
2023-01-21T22:44:03.380Z,7.27
2023-01-21T22:46:31.673Z,7.26
2023-01-21T22:49:00.528Z,7.37
2023-01-21T22:51:28.605Z,7.40
2023-01-21T22:53:58.041Z,7.32
2023-01-21T22:56:53.140Z,7.15
2023-01-21T22:59:15.440Z,7.25
2023-01-21T23:01:43.438Z,7.29
2023-01-21T23:04:13.138Z,7.40
2023-01-21T23:06:42.862Z,7.39
2023-01-21T23:09:15.484Z,7.36
2023-01-21T23:11:45.295Z,7.43
2023-01-21T23:14:13.670Z,7.46
2023-01-21T23:16:41.689Z,7.39
2023-01-21T23:19:10.080Z,7.42
2023-01-21T23:21:38.687Z,7.43
2023-01-21T23:24:07.914Z,7.47
2023-01-21T23:26:36.563Z,7.51
2023-01-21T23:29:05.255Z,7.43
2023-01-21T23:31:33.493Z,7.39
2023-01-21T23:34:03.548Z,7.39
2023-01-21T23:36:31.483Z,7.43
2023-01-21T23:39:00.943Z,7.37
2023-01-21T23:41:29.413Z,7.19
2023-01-21T23:44:01.661Z,7.12
2023-01-21T23:46:30.594Z,6.98
2023-01-21T23:48:58.969Z,6.97
2023-01-21T23:51:28.461Z,7.19
2023-01-21T23:53:57.381Z,7.20
2023-01-21T23:56:29.013Z,7.16
2023-01-21T23:58:58.259Z,7.19
